createdAt,value
2018-07-30T00:00:15.320Z,4.50
2018-07-30T00:02:44.764Z,4.10
2018-07-30T00:05:13.085Z,4.27
2018-07-30T00:07:41.658Z,4.93
2018-07-30T00:10:10.497Z,11.10
2018-07-30T00:12:38.577Z,8.23
2018-07-30T00:15:06.927Z,7.60
2018-07-30T00:17:35.746Z,4.87
2018-07-30T00:20:04.594Z,4.83
2018-07-30T00:22:32.720Z,4.10
2018-07-30T00:25:01.047Z,4.73
2018-07-30T00:27:29.068Z,5.10
2018-07-30T00:29:57.602Z,5.53
2018-07-30T00:32:25.846Z,4.63
2018-07-30T00:34:54.812Z,4.80
2018-07-30T00:37:22.912Z,4.13
2018-07-30T00:39:51.169Z,7.03
2018-07-30T00:42:19.253Z,3.97
2018-07-30T00:44:47.378Z,4.40
2018-07-30T00:47:15.447Z,5.37
2018-07-30T00:49:43.649Z,4.43
2018-07-30T00:52:11.763Z,4.87
2018-07-30T00:54:40.175Z,7.93
2018-07-30T00:57:08.992Z,5.00
2018-07-30T00:59:37.275Z,5.20
2018-07-30T01:02:05.423Z,5.27
2018-07-30T01:04:33.691Z,4.57
2018-07-30T01:07:01.817Z,5.13
2018-07-30T01:09:31.057Z,5.63
2018-07-30T01:11:59.462Z,4.87
2018-07-30T01:14:28.156Z,4.27
2018-07-30T01:16:56.283Z,5.00
2018-07-30T01:19:24.543Z,4.67
2018-07-30T01:21:52.739Z,4.60
2018-07-30T01:24:22.083Z,4.97
2018-07-30T01:26:50.157Z,5.30
2018-07-30T01:29:19.094Z,6.33
2018-07-30T01:31:47.213Z,5.17
2018-07-30T01:34:15.326Z,5.53
2018-07-30T01:36:43.474Z,4.43
2018-07-30T01:39:11.881Z,5.63
2018-07-30T01:41:40.098Z,5.63
2018-07-30T01:44:08.375Z,5.57
2018-07-30T01:46:36.603Z,4.70
2018-07-30T01:49:05.314Z,5.33
2018-07-30T01:51:33.548Z,6.37
2018-07-30T01:54:01.780Z,5.27
2018-07-30T01:56:30.978Z,6.70
2018-07-30T01:58:59.036Z,4.87
2018-07-30T02:01:27.314Z,5.50
2018-07-30T02:03:56.672Z,7.10
2018-07-30T02:06:24.876Z,6.70
2018-07-30T02:08:53.762Z,6.00
2018-07-30T02:11:22.193Z,5.47
2018-07-30T02:13:50.340Z,7.93
2018-07-30T02:16:19.406Z,5.73
2018-07-30T02:18:47.640Z,6.47
2018-07-30T02:21:16.606Z,6.47
2018-07-30T02:23:45.563Z,5.93
2018-07-30T02:26:14.879Z,4.73
2018-07-30T02:28:43.740Z,4.90
2018-07-30T02:31:12.181Z,5.10
2018-07-30T02:33:40.538Z,5.10
2018-07-30T02:36:08.801Z,5.00
2018-07-30T02:38:37.018Z,5.50
2018-07-30T02:41:05.471Z,6.00
2018-07-30T02:43:33.651Z,5.20
2018-07-30T02:46:01.788Z,4.87
2018-07-30T02:48:29.990Z,4.53
2018-07-30T02:50:58.318Z,4.60
2018-07-30T02:53:26.594Z,4.70
2018-07-30T02:55:54.825Z,6.30
2018-07-30T02:58:23.012Z,4.70
2018-07-30T03:00:51.298Z,5.70
2018-07-30T03:03:19.500Z,4.50
2018-07-30T03:05:47.806Z,5.10
2018-07-30T03:08:15.916Z,4.53
2018-07-30T03:10:44.198Z,5.60
2018-07-30T03:13:12.396Z,5.87
2018-07-30T03:15:40.401Z,5.67
2018-07-30T03:18:08.670Z,5.90
2018-07-30T03:20:36.962Z,6.27
2018-07-30T03:23:06.325Z,6.10
2018-07-30T03:25:34.402Z,6.30
2018-07-30T03:28:02.626Z,6.43
2018-07-30T03:30:31.129Z,6.50
2018-07-30T03:32:59.481Z,4.53
2018-07-30T03:35:27.948Z,5.33
2018-07-30T03:37:56.071Z,5.50
2018-07-30T03:40:24.374Z,5.70
2018-07-30T03:42:52.723Z,6.30
2018-07-30T03:45:20.985Z,5.53
2018-07-30T03:47:49.347Z,5.70
2018-07-30T03:50:17.741Z,5.67
2018-07-30T03:52:46.930Z,4.77
2018-07-30T03:55:15.605Z,5.70
2018-07-30T03:57:43.885Z,5.47
2018-07-30T04:00:12.847Z,5.30
2018-07-30T04:02:41.928Z,5.50
2018-07-30T04:05:10.675Z,5.33
2018-07-30T04:07:39.750Z,5.57
2018-07-30T04:10:09.071Z,5.60
2018-07-30T04:12:37.306Z,5.80
2018-07-30T04:15:07.371Z,6.73
2018-07-30T04:17:35.993Z,5.33
2018-07-30T04:20:04.378Z,5.13
2018-07-30T04:22:32.584Z,5.30
2018-07-30T04:25:00.819Z,5.57
2018-07-30T04:27:29.039Z,5.00
2018-07-30T04:29:57.295Z,5.57
2018-07-30T04:32:25.550Z,5.43
2018-07-30T04:34:53.627Z,5.63
2018-07-30T04:37:21.771Z,6.00
2018-07-30T04:39:50.671Z,5.73
2018-07-30T04:42:18.907Z,5.47
2018-07-30T04:44:47.195Z,7.27
2018-07-30T04:47:15.275Z,5.13
2018-07-30T04:49:43.373Z,4.97
2018-07-30T04:52:11.478Z,7.47
2018-07-30T04:54:39.568Z,5.77
2018-07-30T04:57:07.748Z,4.40
2018-07-30T04:59:35.862Z,4.63
2018-07-30T05:02:04.032Z,4.57
2018-07-30T05:04:32.286Z,4.67
2018-07-30T05:07:00.574Z,5.23
2018-07-30T05:09:28.897Z,5.10
2018-07-30T05:11:57.052Z,4.50
2018-07-30T05:14:25.193Z,4.90
2018-07-30T05:16:53.308Z,5.30
2018-07-30T05:19:21.876Z,4.60
2018-07-30T05:21:50.015Z,4.70
2018-07-30T05:24:18.352Z,5.17
2018-07-30T05:26:46.363Z,4.53
2018-07-30T05:29:14.886Z,4.50
2018-07-30T05:31:43.059Z,4.87
2018-07-30T05:34:11.309Z,6.23
2018-07-30T05:36:39.583Z,3.63
2018-07-30T05:39:10.235Z,4.10
2018-07-30T05:41:39.173Z,5.47
2018-07-30T05:44:07.381Z,5.13
2018-07-30T05:46:35.567Z,6.07
2018-07-30T05:49:03.963Z,5.03
2018-07-30T05:51:32.039Z,4.10
2018-07-30T05:54:00.884Z,4.47
2018-07-30T05:56:29.107Z,6.27
2018-07-30T05:58:57.255Z,4.53
2018-07-30T06:01:25.516Z,4.03
2018-07-30T06:03:53.604Z,5.72
2018-07-30T06:06:21.715Z,5.90
2018-07-30T06:08:49.815Z,4.47
2018-07-30T06:11:17.952Z,4.15
2018-07-30T06:13:46.182Z,4.72
2018-07-30T06:16:14.383Z,3.42
2018-07-30T06:18:42.641Z,6.17
2018-07-30T06:21:10.894Z,5.40
2018-07-30T06:23:39.080Z,6.03
2018-07-30T06:26:07.234Z,3.90
2018-07-30T06:28:35.339Z,3.50
2018-07-30T06:31:03.548Z,4.12
2018-07-30T06:33:31.787Z,3.90
2018-07-30T06:35:59.994Z,5.22
2018-07-30T06:38:28.299Z,4.62
2018-07-30T06:40:56.552Z,5.12
2018-07-30T06:43:24.816Z,4.10
2018-07-30T06:45:53.060Z,4.47
2018-07-30T06:48:21.538Z,3.40
2018-07-30T06:50:49.944Z,4.08
2018-07-30T06:53:18.463Z,3.20
2018-07-30T06:55:46.802Z,4.53
2018-07-30T06:58:15.033Z,3.33
2018-07-30T07:00:43.248Z,3.33
2018-07-30T07:03:11.434Z,2.80
2018-07-30T07:05:39.497Z,3.40
2018-07-30T07:08:07.992Z,3.75
2018-07-30T07:10:36.269Z,3.70
2018-07-30T07:13:04.461Z,3.50
2018-07-30T07:15:32.579Z,4.03
2018-07-30T07:18:00.805Z,4.37
2018-07-30T07:20:28.957Z,2.83
2018-07-30T07:22:57.133Z,2.72
2018-07-30T07:25:25.255Z,4.25
2018-07-30T07:27:53.378Z,3.70
2018-07-30T07:30:21.387Z,2.70
2018-07-30T07:32:49.491Z,2.80
2018-07-30T07:35:17.693Z,4.62
2018-07-30T07:37:45.945Z,3.15
2018-07-30T07:40:14.270Z,3.50
2018-07-30T07:42:43.070Z,3.08
2018-07-30T07:45:11.294Z,3.10
2018-07-30T07:47:39.491Z,3.67
2018-07-30T07:50:08.041Z,2.98
2018-07-30T07:52:36.037Z,3.95
2018-07-30T07:55:04.323Z,3.67
2018-07-30T07:57:32.487Z,3.40
2018-07-30T08:00:00.767Z,3.27
2018-07-30T08:02:29.057Z,3.52
2018-07-30T08:04:57.189Z,2.70
2018-07-30T08:07:25.459Z,3.40
2018-07-30T08:09:53.672Z,3.10
2018-07-30T08:12:21.804Z,2.70
2018-07-30T08:14:49.880Z,3.70
2018-07-30T08:17:18.037Z,3.00
2018-07-30T08:19:46.434Z,3.30
2018-07-30T08:22:14.698Z,2.65
2018-07-30T08:24:42.831Z,3.37
2018-07-30T08:27:11.042Z,2.80
2018-07-30T08:29:39.302Z,3.35
2018-07-30T08:32:07.563Z,3.55
2018-07-30T08:34:35.743Z,2.85
2018-07-30T08:37:04.081Z,3.95
2018-07-30T08:39:32.294Z,2.83
2018-07-30T08:42:00.527Z,2.47
2018-07-30T08:44:28.587Z,3.00
2018-07-30T08:46:56.695Z,3.17
2018-07-30T08:49:24.843Z,2.83
2018-07-30T08:51:52.972Z,2.72
2018-07-30T08:54:21.222Z,2.85
2018-07-30T08:56:49.434Z,2.70
2018-07-30T08:59:17.684Z,3.83
2018-07-30T09:01:45.852Z,2.60
2018-07-30T09:04:14.002Z,3.65
2018-07-30T09:06:42.186Z,3.25
2018-07-30T09:09:10.882Z,3.37
2018-07-30T09:11:39.516Z,2.90
2018-07-30T09:14:08.086Z,2.95
2018-07-30T09:16:36.344Z,2.90
2018-07-30T09:19:04.894Z,3.00
2018-07-30T09:21:32.993Z,2.70
2018-07-30T09:24:01.144Z,3.33
2018-07-30T09:26:29.318Z,3.37
2018-07-30T09:28:57.538Z,2.72
2018-07-30T09:31:25.810Z,3.17
2018-07-30T09:33:54.148Z,4.42
2018-07-30T09:36:25.522Z,2.65
2018-07-30T09:38:54.515Z,2.60
2018-07-30T09:41:22.886Z,3.80
2018-07-30T09:43:52.396Z,3.87
2018-07-30T09:46:20.714Z,4.10
2018-07-30T09:48:48.772Z,3.00
2018-07-30T09:51:17.222Z,3.15
2018-07-30T09:53:45.539Z,2.80
2018-07-30T09:56:13.892Z,2.83
2018-07-30T09:58:41.963Z,2.80
2018-07-30T10:01:15.778Z,3.37
2018-07-30T10:03:43.860Z,4.30
2018-07-30T10:06:12.190Z,3.10
2018-07-30T10:08:40.523Z,3.25
2018-07-30T10:11:08.702Z,3.72
2018-07-30T10:13:37.645Z,3.85
2018-07-30T10:16:05.840Z,2.70
2018-07-30T10:18:34.635Z,3.27
2018-07-30T10:21:02.914Z,3.15
2018-07-30T10:23:31.219Z,3.05
2018-07-30T10:25:59.423Z,3.62
2018-07-30T10:28:27.663Z,3.10
2018-07-30T10:30:55.800Z,3.58
2018-07-30T10:33:24.264Z,3.02
2018-07-30T10:35:52.391Z,3.50
2018-07-30T10:38:20.704Z,4.95
2018-07-30T10:40:48.648Z,3.25
2018-07-30T10:43:16.920Z,3.52
2018-07-30T10:45:45.174Z,3.58
2018-07-30T10:48:13.431Z,3.90
2018-07-30T10:50:41.517Z,3.10
2018-07-30T10:53:09.910Z,3.20
2018-07-30T10:55:38.072Z,2.90
2018-07-30T10:58:06.386Z,4.83
2018-07-30T11:00:35.273Z,4.37
2018-07-30T11:03:03.876Z,4.10
2018-07-30T11:05:32.296Z,4.00
2018-07-30T11:08:00.553Z,4.08
2018-07-30T11:10:28.764Z,4.55
2018-07-30T11:12:57.040Z,3.58
2018-07-30T11:15:25.187Z,4.00
2018-07-30T11:17:53.552Z,3.85
2018-07-30T11:20:21.564Z,3.80
2018-07-30T11:22:49.655Z,4.85
2018-07-30T11:25:17.883Z,2.98
2018-07-30T11:27:46.128Z,3.58
2018-07-30T11:30:14.327Z,3.45
2018-07-30T11:32:42.536Z,2.80
2018-07-30T11:35:10.889Z,3.77
2018-07-30T11:37:39.050Z,3.58
2018-07-30T11:40:07.315Z,4.42
2018-07-30T11:42:35.574Z,4.17
2018-07-30T11:45:04.211Z,5.25
2018-07-30T11:47:32.527Z,3.42
2018-07-30T11:50:00.621Z,3.25
2018-07-30T11:52:28.718Z,4.45
2018-07-30T11:54:56.789Z,3.85
2018-07-30T11:57:25.018Z,4.20
2018-07-30T11:59:53.667Z,4.37
2018-07-30T12:02:21.786Z,4.28
2018-07-30T12:04:56.647Z,4.17
2018-07-30T12:07:24.865Z,4.53
2018-07-30T12:09:53.118Z,5.53
2018-07-30T12:12:21.818Z,3.77
2018-07-30T12:14:49.924Z,3.52
2018-07-30T12:17:18.188Z,3.75
2018-07-30T12:19:46.692Z,3.20
2018-07-30T12:22:14.900Z,3.90
2018-07-30T12:24:43.152Z,2.98
2018-07-30T12:27:11.374Z,3.30
2018-07-30T12:29:39.706Z,3.45
2018-07-30T12:32:08.201Z,3.27
2018-07-30T12:34:36.262Z,3.90
2018-07-30T12:37:05.376Z,3.75
2018-07-30T12:39:33.658Z,3.40
2018-07-30T12:42:01.800Z,4.03
2018-07-30T12:44:29.918Z,3.80
2018-07-30T12:46:58.024Z,3.80
2018-07-30T12:49:26.301Z,3.30
2018-07-30T12:51:54.429Z,3.50
2018-07-30T12:54:23.264Z,3.40
2018-07-30T12:56:51.475Z,3.27
2018-07-30T12:59:19.807Z,3.65
2018-07-30T13:01:48.060Z,2.90
2018-07-30T13:04:16.595Z,3.58
2018-07-30T13:06:45.109Z,3.50
2018-07-30T13:09:13.419Z,4.75
2018-07-30T13:11:41.637Z,5.03
2018-07-30T13:14:09.898Z,3.00
2018-07-30T13:16:38.622Z,2.92
2018-07-30T13:19:06.946Z,4.15
2018-07-30T13:21:35.204Z,3.30
2018-07-30T13:24:03.363Z,2.72
2018-07-30T13:26:31.527Z,3.20
2018-07-30T13:28:59.847Z,4.62
2018-07-30T13:31:28.358Z,4.72
2018-07-30T13:33:56.918Z,4.20
2018-07-30T13:36:25.205Z,3.37
2018-07-30T13:38:53.358Z,3.72
2018-07-30T13:41:21.690Z,4.17
2018-07-30T13:43:49.773Z,3.30
2018-07-30T13:46:18.836Z,3.37
2018-07-30T13:48:46.985Z,4.35
2018-07-30T13:51:15.159Z,3.92
2018-07-30T13:53:43.371Z,4.72
2018-07-30T13:56:11.523Z,5.45
2018-07-30T13:58:39.673Z,4.08
2018-07-30T14:01:08.001Z,4.00
2018-07-30T14:03:36.112Z,4.95
2018-07-30T14:06:04.527Z,3.25
2018-07-30T14:08:32.787Z,4.00
2018-07-30T14:11:00.907Z,3.77
2018-07-30T14:13:29.006Z,3.83
2018-07-30T14:15:57.043Z,4.03
2018-07-30T14:18:25.195Z,4.83
2018-07-30T14:20:53.613Z,3.95
2018-07-30T14:23:21.751Z,4.37
2018-07-30T14:25:49.865Z,4.67
2018-07-30T14:28:18.073Z,3.87
2018-07-30T14:30:47.167Z,4.62
2018-07-30T14:33:15.595Z,4.47
2018-07-30T14:35:43.942Z,4.30
2018-07-30T14:38:12.168Z,4.83
2018-07-30T14:40:40.393Z,4.35
2018-07-30T14:43:08.574Z,4.00
2018-07-30T14:45:36.894Z,4.42
2018-07-30T14:48:05.412Z,5.03
2018-07-30T14:50:33.630Z,4.05
2018-07-30T14:53:02.180Z,4.33
2018-07-30T14:55:30.448Z,6.53
2018-07-30T14:57:58.655Z,5.53
2018-07-30T15:00:26.936Z,4.87
2018-07-30T15:02:55.083Z,4.53
2018-07-30T15:05:23.553Z,5.17
2018-07-30T15:07:52.082Z,5.40
2018-07-30T15:10:20.219Z,5.47
2018-07-30T15:12:48.403Z,4.53
2018-07-30T15:15:17.660Z,4.95
2018-07-30T15:17:45.988Z,5.05
2018-07-30T15:20:14.592Z,5.75
2018-07-30T15:22:42.666Z,5.72
2018-07-30T15:25:11.860Z,6.42
2018-07-30T15:27:40.629Z,6.12
2018-07-30T15:30:08.933Z,4.47
2018-07-30T15:32:37.092Z,4.28
2018-07-30T15:35:05.295Z,6.70
2018-07-30T15:37:33.528Z,4.55
2018-07-30T15:40:01.852Z,3.65
2018-07-30T15:42:30.024Z,4.80
2018-07-30T15:44:58.172Z,6.28
2018-07-30T15:47:26.321Z,4.83
2018-07-30T15:49:54.645Z,3.87
2018-07-30T15:52:22.975Z,4.70
2018-07-30T15:54:52.195Z,4.85
2018-07-30T15:57:20.373Z,5.17
2018-07-30T15:59:49.441Z,4.47
2018-07-30T16:02:17.657Z,5.58
2018-07-30T16:04:45.787Z,4.80
2018-07-30T16:07:13.784Z,4.50
2018-07-30T16:09:42.576Z,4.40
2018-07-30T16:12:10.814Z,5.05
2018-07-30T16:14:38.961Z,5.28
2018-07-30T16:17:07.253Z,3.92
2018-07-30T16:19:35.907Z,4.08
2018-07-30T16:22:04.316Z,3.98
2018-07-30T16:24:33.209Z,5.92
2018-07-30T16:27:01.441Z,7.47
2018-07-30T16:29:29.621Z,5.55
2018-07-30T16:31:57.789Z,5.42
2018-07-30T16:34:25.969Z,4.55
2018-07-30T16:36:54.348Z,4.85
2018-07-30T16:39:22.645Z,5.05
2018-07-30T16:41:50.986Z,4.80
2018-07-30T16:44:19.433Z,4.65
2018-07-30T16:46:47.548Z,4.22
2018-07-30T16:49:15.622Z,5.05
2018-07-30T16:51:43.800Z,4.90
2018-07-30T16:54:11.923Z,5.12
2018-07-30T16:56:39.961Z,4.92
2018-07-30T16:59:08.198Z,3.87
2018-07-30T17:01:36.437Z,5.55
2018-07-30T17:04:05.193Z,5.45
2018-07-30T17:06:33.483Z,5.70
2018-07-30T17:09:01.923Z,5.65
2018-07-30T17:11:30.239Z,5.87
2018-07-30T17:13:58.477Z,4.90
2018-07-30T17:16:26.739Z,5.08
2018-07-30T17:18:55.564Z,5.05
2018-07-30T17:21:23.812Z,5.37
2018-07-30T17:23:53.744Z,4.70
2018-07-30T17:26:22.354Z,5.53
2018-07-30T17:28:50.517Z,5.30
2018-07-30T17:31:18.708Z,4.22
2018-07-30T17:33:46.956Z,4.87
2018-07-30T17:36:15.684Z,5.53
2018-07-30T17:38:43.968Z,6.50
2018-07-30T17:41:13.136Z,5.05
2018-07-30T17:43:41.435Z,5.55
2018-07-30T17:46:09.846Z,5.80
2018-07-30T17:48:37.936Z,5.28
2018-07-30T17:51:06.454Z,5.53
2018-07-30T17:53:34.633Z,5.35
2018-07-30T17:56:02.752Z,5.67
2018-07-30T17:58:31.016Z,5.20
2018-07-30T18:00:59.214Z,5.62
2018-07-30T18:03:29.051Z,6.20
2018-07-30T18:05:57.295Z,5.60
2018-07-30T18:08:25.365Z,5.47
2018-07-30T18:10:54.410Z,5.22
2018-07-30T18:13:22.554Z,4.47
2018-07-30T18:15:50.749Z,5.85
2018-07-30T18:18:18.988Z,4.55
2018-07-30T18:20:47.152Z,3.90
2018-07-30T18:23:15.397Z,4.50
2018-07-30T18:25:43.581Z,5.22
2018-07-30T18:28:12.350Z,5.10
2018-07-30T18:30:40.529Z,5.58
2018-07-30T18:33:09.145Z,6.03
2018-07-30T18:35:37.418Z,5.22
2018-07-30T18:38:05.631Z,4.90
2018-07-30T18:40:34.108Z,6.60
2018-07-30T18:43:02.384Z,5.33
2018-07-30T18:45:30.595Z,5.28
2018-07-30T18:47:59.103Z,5.35
2018-07-30T18:50:27.261Z,5.90
2018-07-30T18:52:55.387Z,5.08
2018-07-30T18:55:23.524Z,4.78
2018-07-30T18:57:51.810Z,4.78
2018-07-30T19:00:20.086Z,5.10
2018-07-30T19:02:48.261Z,5.30
2018-07-30T19:05:16.472Z,5.40
2018-07-30T19:07:44.804Z,5.05
2018-07-30T19:10:12.982Z,5.60
2018-07-30T19:12:41.201Z,6.33
2018-07-30T19:15:09.402Z,8.20
2018-07-30T19:17:37.866Z,9.40
2018-07-30T19:20:06.077Z,10.53
2018-07-30T19:22:34.307Z,12.10
2018-07-30T19:25:02.543Z,13.85
2018-07-30T19:27:30.620Z,9.33
2018-07-30T19:29:58.838Z,11.77
2018-07-30T19:32:27.015Z,9.35
2018-07-30T19:34:55.327Z,6.00
2018-07-30T19:37:23.588Z,5.90
2018-07-30T19:39:51.837Z,6.20
2018-07-30T19:42:20.092Z,6.97
2018-07-30T19:44:48.487Z,6.50
2018-07-30T19:47:16.709Z,6.00
2018-07-30T19:49:44.895Z,8.00
2018-07-30T19:52:13.646Z,6.47
2018-07-30T19:54:41.898Z,5.73
2018-07-30T19:57:10.039Z,6.63
2018-07-30T19:59:38.335Z,6.40
2018-07-30T20:02:06.704Z,6.53
2018-07-30T20:04:34.917Z,6.23
2018-07-30T20:07:04.073Z,7.30
2018-07-30T20:09:32.194Z,6.40
2018-07-30T20:12:00.567Z,7.53
2018-07-30T20:14:28.795Z,8.63
2018-07-30T20:16:58.150Z,6.63
2018-07-30T20:19:26.363Z,6.60
2018-07-30T20:21:55.079Z,6.73
2018-07-30T20:24:23.576Z,6.13
2018-07-30T20:26:52.044Z,6.93
2018-07-30T20:29:20.641Z,7.10
2018-07-30T20:31:48.776Z,7.93
2018-07-30T20:34:16.959Z,7.03
2018-07-30T20:36:45.190Z,6.70
2018-07-30T20:39:13.450Z,7.60
2018-07-30T20:41:41.551Z,7.10
2018-07-30T20:44:09.725Z,6.97
2018-07-30T20:46:37.970Z,7.90
2018-07-30T20:49:06.330Z,7.10
2018-07-30T20:51:41.559Z,8.00
2018-07-30T20:54:12.151Z,6.87
2018-07-30T20:56:40.492Z,7.27
2018-07-30T20:59:08.810Z,8.33
2018-07-30T21:01:37.187Z,8.20
2018-07-30T21:04:05.888Z,7.17
2018-07-30T21:06:34.327Z,8.53
2018-07-30T21:09:02.962Z,7.20
2018-07-30T21:11:31.390Z,7.43
2018-07-30T21:13:59.526Z,9.23
2018-07-30T21:16:27.824Z,6.40
2018-07-30T21:18:56.550Z,7.23
2018-07-30T21:21:24.747Z,7.70
2018-07-30T21:23:52.933Z,8.17
2018-07-30T21:26:21.388Z,8.47
2018-07-30T21:28:49.571Z,7.37
2018-07-30T21:31:17.800Z,7.13
2018-07-30T21:33:46.244Z,6.67
2018-07-30T21:36:14.610Z,7.50
2018-07-30T21:38:42.870Z,6.73
2018-07-30T21:41:11.044Z,6.90
2018-07-30T21:43:39.412Z,7.90
2018-07-30T21:46:07.578Z,6.53
2018-07-30T21:48:35.928Z,6.43
2018-07-30T21:51:04.126Z,6.50
2018-07-30T21:53:32.488Z,7.17
2018-07-30T21:56:00.675Z,8.70
2018-07-30T21:58:29.786Z,6.30
2018-07-30T22:00:58.404Z,6.77
2018-07-30T22:03:26.845Z,7.37
2018-07-30T22:05:57.884Z,7.00
2018-07-30T22:08:26.700Z,7.07
2018-07-30T22:10:54.957Z,6.63
2018-07-30T22:13:23.279Z,7.07
2018-07-30T22:15:52.979Z,6.90
2018-07-30T22:18:21.185Z,6.83
2018-07-30T22:20:49.349Z,6.43
2018-07-30T22:23:17.694Z,6.97
2018-07-30T22:25:45.823Z,6.47
2018-07-30T22:28:14.147Z,6.53
2018-07-30T22:30:42.341Z,6.03
2018-07-30T22:33:10.692Z,7.00
2018-07-30T22:35:38.870Z,6.57
2018-07-30T22:38:07.017Z,7.70
2018-07-30T22:40:35.252Z,5.90
2018-07-30T22:43:03.527Z,6.10
2018-07-30T22:45:31.728Z,6.90
2018-07-30T22:48:00.146Z,6.73
2018-07-30T22:50:28.327Z,5.97
2018-07-30T22:52:56.518Z,6.10
2018-07-30T22:55:24.634Z,6.63
2018-07-30T22:57:52.938Z,7.63
2018-07-30T23:00:21.048Z,6.90
2018-07-30T23:02:49.225Z,6.63
2018-07-30T23:05:17.368Z,7.40
2018-07-30T23:07:45.508Z,7.63
2018-07-30T23:10:13.657Z,6.60
2018-07-30T23:12:42.065Z,7.23
2018-07-30T23:15:10.440Z,6.57
2018-07-30T23:17:38.978Z,6.57
2018-07-30T23:20:07.094Z,6.83
2018-07-30T23:22:35.275Z,9.20
2018-07-30T23:25:03.769Z,6.50
2018-07-30T23:27:32.103Z,7.07
2018-07-30T23:30:00.416Z,7.53
2018-07-30T23:32:28.615Z,6.73
2018-07-30T23:34:56.925Z,6.93
2018-07-30T23:37:25.470Z,7.83
2018-07-30T23:39:53.652Z,6.57
2018-07-30T23:42:21.670Z,6.87
2018-07-30T23:44:49.966Z,7.73
2018-07-30T23:47:18.080Z,7.20
2018-07-30T23:49:46.528Z,7.80
2018-07-30T23:52:15.594Z,8.03
2018-07-30T23:54:43.823Z,6.87
2018-07-30T23:57:12.021Z,7.77
2018-07-30T23:59:40.164Z,7.77
